Time;durP1;ratioP1;P1;durP2;ratioP2;P2;SDS_P1;SDS_P2;PMS_P1;PMS_P2;Temp;Humidity;BMP_temperature;BMP_pressure;BME280_temperature;BME280_humidity;BME280_pressure;Samples;Min_cycle;Max_cycle;Signal;HPM_P1;HPM_P2
2022/02/11 00:00:51;;;;;;;2.40;1.15;;;;;;;12.10;47.88;102070.66;5053496;28;20021;-63
2022/02/11 00:08:17;;;;;;;2.83;1.00;;;;;;;12.06;48.02;102072.69;5053888;28;20033;-63
2022/02/11 00:10:42;;;;;;;1.58;1.00;;;;;;;12.06;47.99;102075.38;5053122;28;20047;-63
2022/02/11 00:13:08;;;;;;;2.40;0.98;;;;;;;12.02;47.72;102070.34;5053258;28;20056;-63
2022/02/11 00:15:43;;;;;;;4.80;1.20;;;;;;;12.02;47.90;102071.22;5053204;28;20025;-63
2022/02/11 00:18:14;;;;;;;2.53;1.30;;;;;;;12.00;48.31;102075.00;5055535;28;20036;-63
2022/02/11 00:20:40;;;;;;;4.22;1.45;;;;;;;11.97;47.28;102075.19;5039568;28;20029;-63
2022/02/11 00:23:06;;;;;;;2.65;1.70;;;;;;;11.97;48.17;102080.56;5039556;28;20029;-63
2022/02/11 00:25:41;;;;;;;3.33;1.48;;;;;;;11.91;48.06;102076.47;5057081;28;20021;-63
2022/02/11 00:33:37;;;;;;;2.72;1.15;;;;;;;11.88;47.49;102076.69;5057308;28;20040;-63
2022/02/11 00:36:06;;;;;;;2.15;1.27;;;;;;;11.87;47.87;102084.84;5057214;28;20383;-63
2022/02/11 00:38:52;;;;;;;4.13;1.50;;;;;;;11.84;47.83;102079.69;5056857;28;20100;-63
2022/02/11 00:47:01;;;;;;;4.43;1.70;;;;;;;11.75;48.13;102075.84;5056876;28;20021;-63
2022/02/11 01:03:13;;;;;;;2.22;1.55;;;;;;;11.67;47.85;102067.41;5041438;28;20118;-63
2022/02/11 01:05:39;;;;;;;2.30;1.67;;;;;;;11.67;47.85;102067.41;5039945;28;20029;-63
2022/02/11 01:08:04;;;;;;;3.00;2.03;;;;;;;11.67;47.98;102062.03;5056341;28;20129;-63
2022/02/11 01:10:32;;;;;;;4.85;2.20;;;;;;;11.64;48.09;102067.63;5056298;28;20021;-63
2022/02/11 01:12:57;;;;;;;3.30;1.70;;;;;;;11.62;47.95;102062.34;5056557;28;20497;-62
2022/02/11 01:15:24;;;;;;;5.90;2.53;;;;;;;11.59;47.38;102067.06;5056003;28;20033;-63
2022/02/11 01:17:54;;;;;;;2.97;2.03;;;;;;;11.59;48.15;102075.13;5056363;28;20025;-63
2022/02/11 01:23:04;;;;;;;6.43;1.80;;;;;;;11.55;47.66;102074.50;5056629;28;20060;-63
2022/02/11 01:25:50;;;;;;;7.10;1.98;;;;;;;11.54;47.64;102085.31;5041383;28;20040;-63
2022/02/11 01:28:32;;;;;;;4.15;2.35;;;;;;;11.42;47.78;102062.00;5037825;28;20074;-63
2022/02/11 01:33:41;;;;;;;7.75;2.13;;;;;;;11.50;48.13;102090.03;5056028;28;20056;-63
2022/02/11 01:49:51;;;;;;;6.85;3.50;;;;;;;11.40;47.76;102090.75;5055960;28;20025;-60
2022/02/11 02:06:06;;;;;;;6.28;3.25;;;;;;;11.35;47.96;102092.88;5055571;28;20033;-63
2022/02/11 02:22:00;;;;;;;7.00;3.65;;;;;;;11.31;48.52;102096.72;5055373;28;20033;-63
2022/02/11 02:24:33;;;;;;;8.07;3.55;;;;;;;11.29;48.07;102088.78;5054400;28;20033;-63
2022/02/11 02:59:04;;;;;;;7.88;3.35;;;;;;;11.32;47.57;102093.09;5039388;28;20047;-61
2022/02/11 04:53:33;;;;;;;5.80;2.75;;;;;;;11.54;48.53;102228.41;5053233;28;20406;-61
2022/02/11 04:55:40;;;;;;;8.35;2.70;;;;;;;11.59;47.89;102230.75;5053069;28;20025;-61
2022/02/11 05:00:49;;;;;;;6.72;2.53;;;;;;;11.61;47.80;102228.88;5052933;28;20033;-61
2022/02/11 05:03:15;;;;;;;7.97;2.45;;;;;;;11.60;48.40;102233.38;5053610;28;20025;-61
2022/02/11 05:05:50;;;;;;;7.32;2.40;;;;;;;11.61;48.36;102244.97;5056556;28;20379;-61
2022/02/11 05:08:19;;;;;;;6.13;2.65;;;;;;;11.61;48.30;102244.97;5056897;28;20463;-61
2022/02/11 05:10:45;;;;;;;4.45;2.08;;;;;;;11.57;48.82;102232.69;5056601;28;20020;-61
2022/02/11 05:13:12;;;;;;;7.22;2.05;;;;;;;11.58;48.38;102250.53;5056592;28;20017;-61
2022/02/11 05:15:37;;;;;;;4.43;2.28;;;;;;;11.55;47.98;102254.28;5056650;28;20029;-61
2022/02/11 05:18:03;;;;;;;6.20;2.55;;;;;;;11.58;48.68;102266.63;5056282;28;20087;-61
2022/02/11 05:20:29;;;;;;;7.90;2.03;;;;;;;11.60;48.17;102272.75;5021916;28;20037;-61
2022/02/11 05:22:54;;;;;;;13.52;2.60;;;;;;;11.61;48.52;102261.91;5056212;28;20021;-61
2022/02/11 05:25:19;;;;;;;6.10;2.38;;;;;;;11.64;48.44;102266.25;5056237;28;20085;-61
2022/02/11 05:27:45;;;;;;;6.35;2.10;;;;;;;11.67;48.23;102279.44;5038534;28;20024;-61
2022/02/11 05:30:11;;;;;;;6.30;2.10;;;;;;;11.63;49.03;102270.75;5056293;28;20025;-61
2022/02/11 05:32:36;;;;;;;4.40;2.30;;;;;;;11.67;48.66;102284.78;5055852;28;20029;-61
2022/02/11 05:35:02;;;;;;;12.23;2.83;;;;;;;11.66;48.41;102291.16;5056178;28;20044;-61
2022/02/11 05:37:27;;;;;;;4.28;2.13;;;;;;;11.66;49.32;102296.50;5055832;28;20537;-61
2022/02/11 05:39:53;;;;;;;5.32;2.80;;;;;;;11.60;48.49;102280.81;5056318;28;20482;-61
2022/02/11 05:42:18;;;;;;;8.45;2.20;;;;;;;11.67;49.14;102279.44;5056166;28;20064;-61
2022/02/11 05:44:43;;;;;;;5.07;2.35;;;;;;;11.71;48.99;102294.41;5055948;28;20440;-61
2022/02/11 05:47:08;;;;;;;9.90;2.30;;;;;;;11.72;48.54;102297.97;5055920;28;20037;-61
2022/02/11 05:49:34;;;;;;;5.38;2.28;;;;;;;11.72;47.99;102289.91;5055924;28;20024;-61
2022/02/11 05:51:59;;;;;;;6.13;2.53;;;;;;;11.74;49.07;102298.72;5055733;28;20035;-61
2022/02/11 05:54:25;;;;;;;8.48;2.47;;;;;;;11.75;48.48;102312.06;5055495;28;20041;-61
2022/02/11 05:56:50;;;;;;;7.82;2.28;;;;;;;11.77;48.33;102304.75;5055578;28;20024;-61
2022/02/11 05:59:17;;;;;;;9.82;2.33;;;;;;;11.82;48.28;102316.06;5037624;28;20104;-61
2022/02/11 06:01:43;;;;;;;8.15;2.30;;;;;;;11.84;48.77;102316.81;5055424;28;20449;-61
2022/02/11 06:04:08;;;;;;;12.65;3.17;;;;;;;11.85;48.26;102313.16;5055482;28;20058;-61
2022/02/11 06:06:34;;;;;;;5.68;2.28;;;;;;;11.86;48.63;102314.03;5055392;28;20052;-62
2022/02/11 06:08:59;;;;;;;5.93;2.13;;;;;;;11.87;48.23;102324.66;5055392;28;20021;-63
2022/02/11 06:11:29;;;;;;;6.53;2.35;;;;;;;11.87;48.64;102326.47;5055132;28;20029;-61
2022/02/11 06:13:55;;;;;;;8.13;1.88;;;;;;;11.88;47.92;102334.44;5055206;28;20079;-61
2022/02/11 06:16:20;;;;;;;6.20;1.58;;;;;;;11.87;48.28;102334.53;5036531;28;20394;-61
2022/02/11 06:18:46;;;;;;;11.73;1.98;;;;;;;11.87;48.79;102337.22;5055008;28;20021;-61
2022/02/11 06:21:11;;;;;;;5.32;2.00;;;;;;;11.87;49.05;102353.31;5055914;28;20037;-61
2022/02/11 06:23:36;;;;;;;6.00;2.20;;;;;;;11.80;48.95;102342.16;5055153;28;20372;-62
2022/02/11 06:26:02;;;;;;;6.65;2.17;;;;;;;11.82;48.12;102359.00;5037222;28;20037;-63
2022/02/11 06:28:27;;;;;;;7.55;1.98;;;;;;;11.78;48.16;102365.53;5054950;28;20024;-63
2022/02/11 06:30:52;;;;;;;4.75;1.85;;;;;;;11.75;48.53;102365.75;5055183;28;20104;-63
2022/02/11 06:33:18;;;;;;;4.93;1.88;;;;;;;11.79;48.00;102372.63;5054961;28;20537;-63
2022/02/11 06:35:44;;;;;;;4.57;2.53;;;;;;;11.78;48.30;102375.44;5037151;28;20479;-63
2022/02/11 06:38:10;;;;;;;4.80;2.42;;;;;;;11.74;49.02;102380.13;5054746;28;20090;-63
2022/02/11 06:40:37;;;;;;;8.98;1.73;;;;;;;11.63;48.40;102370.03;5054739;28;20029;-63
2022/02/11 06:43:03;;;;;;;4.95;1.58;;;;;;;11.72;48.27;102390.09;5054874;28;20025;-63
2022/02/11 06:45:29;;;;;;;8.57;1.95;;;;;;;11.71;48.42;102401.78;5054849;28;20394;-63
2022/02/11 06:47:54;;;;;;;5.40;2.33;;;;;;;11.66;48.80;102401.19;5055013;28;20025;-63
2022/02/11 06:50:20;;;;;;;6.25;2.28;;;;;;;11.70;48.65;102410.78;5055020;28;20021;-63
2022/02/11 06:52:45;;;;;;;12.98;1.98;;;;;;;11.69;48.06;102414.44;5054495;28;20056;-63
2022/02/11 06:55:11;;;;;;;11.15;1.98;;;;;;;11.70;48.39;102421.53;5054706;28;20021;-63
2022/02/11 06:57:37;;;;;;;13.65;1.98;;;;;;;11.71;48.58;102417.88;5036704;28;20154;-63
2022/02/11 07:00:02;;;;;;;3.42;1.58;;;;;;;11.76;48.34;102431.88;5054310;28;20031;-63
2022/02/11 07:02:29;;;;;;;5.45;1.50;;;;;;;11.74;48.53;102423.06;5054677;28;20033;-64
2022/02/11 07:04:55;;;;;;;7.60;1.48;;;;;;;11.74;48.14;102428.44;5036428;28;20032;-63
2022/02/11 07:07:20;;;;;;;6.72;1.40;;;;;;;11.79;48.42;102445.09;5036608;28;20025;-63
2022/02/11 07:09:47;;;;;;;12.85;2.25;;;;;;;11.82;48.30;102447.59;5036478;28;20036;-63
2022/02/11 07:12:13;;;;;;;11.00;1.70;;;;;;;11.86;48.07;102450.97;5054502;28;20108;-63
2022/02/11 07:14:38;;;;;;;5.35;1.05;;;;;;;11.87;48.55;102450.84;5054179;28;20056;-63
2022/02/11 07:17:05;;;;;;;14.10;1.70;;;;;;;11.92;49.03;102464.00;5054206;28;20036;-63
2022/02/11 07:19:30;;;;;;;5.03;1.77;;;;;;;11.96;48.54;102465.50;5054331;28;20134;-63
2022/02/11 07:22:00;;;;;;;12.18;2.10;;;;;;;11.99;47.85;102466.19;5054220;28;20475;-63
2022/02/11 07:24:26;;;;;;;3.72;1.38;;;;;;;12.02;48.53;102481.25;5052682;28;20029;-63
2022/02/11 07:26:51;;;;;;;5.80;1.80;;;;;;;12.06;48.36;102483.63;5053831;28;20112;-63
2022/02/11 07:29:16;;;;;;;6.65;1.85;;;;;;;12.09;48.28;102483.44;5053916;28;20040;-63
2022/02/11 07:31:42;;;;;;;7.15;1.55;;;;;;;12.14;48.24;102492.03;5035857;28;20021;-63
2022/02/11 07:34:07;;;;;;;9.38;1.58;;;;;;;12.13;47.66;102501.09;5054023;28;20064;-62
2022/02/11 07:36:33;;;;;;;9.40;2.75;;;;;;;12.23;48.14;102510.28;5036026;28;20033;-63
2022/02/11 07:39:00;;;;;;;9.77;1.38;;;;;;;12.32;48.19;102513.31;5053472;28;20028;-63
2022/02/11 07:41:25;;;;;;;9.07;1.58;;;;;;;12.39;47.67;102518.22;5053690;28;20021;-63
2022/02/11 07:43:51;;;;;;;4.70;1.70;;;;;;;12.47;47.92;102523.09;5036167;28;20033;-63
2022/02/11 07:46:16;;;;;;;7.57;1.77;;;;;;;12.54;47.48;102527.09;5058300;28;20310;-62
2022/02/11 07:48:42;;;;;;;5.20;1.95;;;;;;;12.55;47.37;102529.69;5075779;28;20470;-62
2022/02/11 07:51:07;;;;;;;10.65;1.67;;;;;;;12.63;48.47;102534.56;5093794;28;20089;-63
2022/02/11 07:53:36;;;;;;;16.85;1.73;;;;;;;12.65;48.53;102540.69;5093742;28;20048;-63
2022/02/11 07:56:03;;;;;;;7.45;1.75;;;;;;;12.70;47.56;102547.50;5094221;28;20035;-63
2022/02/11 07:58:28;;;;;;;8.35;1.38;;;;;;;12.77;48.22;102556.91;5093917;28;20028;-63
2022/02/11 08:00:54;;;;;;;7.65;1.92;;;;;;;12.81;47.95;102557.56;5093907;28;20432;-63
2022/02/11 08:03:20;;;;;;;10.43;2.35;;;;;;;12.79;47.64;102575.59;5093932;28;20050;-63
2022/02/11 08:05:45;;;;;;;9.52;2.35;;;;;;;12.77;47.59;102578.41;5093584;28;20020;-63
2022/02/11 08:08:11;;;;;;;6.07;1.45;;;;;;;12.74;48.13;102583.13;5093617;28;20394;-63
2022/02/11 08:10:37;;;;;;;9.40;1.98;;;;;;;12.77;48.12;102601.75;5093701;28;20028;-63
2022/02/11 08:13:02;;;;;;;8.38;1.92;;;;;;;12.74;47.74;102605.50;5093738;28;20024;-63
2022/02/11 08:15:27;;;;;;;21.88;2.42;;;;;;;12.75;48.10;102606.38;5075601;28;20177;-63
2022/02/11 08:17:53;;;;;;;7.43;2.75;;;;;;;12.69;48.21;102602.25;5093664;28;20394;-63
2022/02/11 08:20:19;;;;;;;5.70;1.75;;;;;;;12.76;48.14;102611.63;5093894;28;20090;-63
2022/02/11 08:22:44;;;;;;;7.97;1.88;;;;;;;12.83;47.70;102614.78;5075971;28;20170;-63
2022/02/11 08:25:09;;;;;;;5.60;2.20;;;;;;;12.99;48.38;102625.41;5093355;28;20024;-63
2022/02/11 08:27:35;;;;;;;12.07;1.52;;;;;;;13.16;47.43;102633.25;5093648;28;20039;-63
2022/02/11 08:30:00;;;;;;;16.95;2.15;;;;;;;13.21;47.15;102642.75;5093637;28;20016;-63
2022/02/11 08:32:29;;;;;;;21.63;3.50;;;;;;;13.23;47.93;102634.59;5093635;28;20385;-63
2022/02/11 08:34:55;;;;;;;10.13;1.90;;;;;;;13.29;47.93;102637.72;5093421;28;20020;-63
2022/02/11 08:37:21;;;;;;;7.72;1.80;;;;;;;13.36;46.88;102646.25;5093268;28;20074;-63
2022/02/11 08:39:46;;;;;;;11.40;1.80;;;;;;;13.40;47.24;102648.63;5096354;28;20024;-63
2022/02/11 08:42:13;;;;;;;10.98;2.17;;;;;;;13.59;47.70;102656.34;5079149;28;20023;-63
2022/02/11 08:44:38;;;;;;;10.25;2.30;;;;;;;13.71;46.68;102660.03;5097159;28;20107;-63
2022/02/11 08:47:04;;;;;;;11.48;3.60;;;;;;;13.76;47.40;102661.44;5087514;28;20056;-63
2022/02/11 08:49:31;;;;;;;14.25;1.95;;;;;;;13.76;46.79;102665.97;5076966;28;20398;-63
2022/02/11 08:51:57;;;;;;;13.90;2.10;;;;;;;14.06;46.48;102690.81;5077128;28;20102;-63
2022/02/11 08:54:23;;;;;;;8.70;2.33;;;;;;;14.16;46.18;102696.41;5076654;28;20045;-63
2022/02/11 08:56:48;;;;;;;11.13;3.33;;;;;;;14.14;46.84;102703.75;5076649;28;20444;-63
2022/02/11 08:59:14;;;;;;;8.10;2.28;;;;;;;14.25;45.97;102702.03;5076810;28;20035;-63
2022/02/11 09:01:39;;;;;;;15.32;2.13;;;;;;;14.26;47.24;102702.91;5076970;28;20028;-63
2022/02/11 09:04:04;;;;;;;12.68;2.40;;;;;;;14.13;47.63;102702.88;5076421;28;20049;-63
2022/02/11 09:06:30;;;;;;;12.52;2.13;;;;;;;14.18;47.87;102716.06;5076610;28;20039;-63
2022/02/11 09:08:55;;;;;;;11.50;1.95;;;;;;;14.21;47.49;102721.22;5076425;28;20024;-63
2022/02/11 09:11:21;;;;;;;14.23;1.95;;;;;;;14.21;47.07;102722.06;5076313;28;20055;-63
2022/02/11 09:13:47;;;;;;;14.52;1.60;;;;;;;14.21;46.58;102724.78;5058547;28;20028;-63
2022/02/11 09:16:12;;;;;;;7.75;2.55;;;;;;;14.20;47.46;102731.16;5076422;28;20040;-63
2022/02/11 09:18:39;;;;;;;10.25;1.67;;;;;;;14.17;46.45;102742.13;5058633;28;20367;-63
2022/02/11 09:21:06;;;;;;;12.95;2.05;;;;;;;14.18;46.80;102738.44;5076259;28;20397;-63
2022/02/11 09:23:33;;;;;;;10.45;1.55;;;;;;;14.29;45.73;102743.97;5076273;28;20093;-63
2022/02/11 09:25:58;;;;;;;10.60;1.63;;;;;;;14.47;45.73;102747.25;5076188;28;20105;-63
2022/02/11 09:28:23;;;;;;;11.23;1.92;;;;;;;14.89;46.27;102741.53;5076142;28;20111;-63
2022/02/11 09:30:49;;;;;;;8.10;1.85;;;;;;;15.23;44.97;102739.94;5076174;28;20020;-63
2022/02/11 09:33:16;;;;;;;15.18;2.38;;;;;;;15.59;45.88;102742.66;5076281;28;20036;-63
2022/02/11 09:35:42;;;;;;;9.27;2.05;;;;;;;16.00;44.10;102741.34;5076202;28;20024;-63
2022/02/11 09:38:09;;;;;;;5.70;1.52;;;;;;;16.45;43.48;102739.63;5076031;28;20086;-63
2022/02/11 09:40:40;;;;;;;6.50;1.70;;;;;;;17.61;41.62;102748.25;5075902;28;20032;-63
2022/02/11 09:43:08;;;;;;;13.10;1.95;;;;;;;17.94;42.39;102746.28;5075816;28;20082;-63
2022/02/11 09:45:35;;;;;;;10.68;1.83;;;;;;;17.99;42.60;102745.88;5076141;28;20028;-63
2022/02/11 09:48:01;;;;;;;5.70;1.80;;;;;;;18.23;42.09;102751.06;5075986;28;20390;-63
2022/02/11 09:50:28;;;;;;;8.50;1.58;;;;;;;18.57;41.97;102758.91;5057041;28;20021;-63
2022/02/11 09:52:54;;;;;;;6.97;1.52;;;;;;;19.01;41.42;102757.69;5075935;28;20050;-63
2022/02/11 09:55:35;;;;;;;11.52;2.17;;;;;;;19.36;41.46;102759.09;5075954;28;20107;-64
2022/02/11 09:58:11;;;;;;;22.92;2.88;;;;;;;19.78;41.40;102763.34;5075995;28;20497;-63
2022/02/11 10:00:49;;;;;;;14.48;2.38;;;;;;;20.09;40.61;102769.53;5075703;28;20024;-63
2022/02/11 10:03:20;;;;;;;6.97;2.03;;;;;;;20.45;39.94;102770.66;5075900;28;20478;-64
2022/02/11 10:05:47;;;;;;;5.43;1.60;;;;;;;20.66;40.29;102772.19;5075842;28;20094;-64
2022/02/11 10:08:14;;;;;;;9.70;2.03;;;;;;;20.97;40.16;102791.00;5075586;28;20047;-64
2022/02/11 10:10:39;;;;;;;7.60;1.88;;;;;;;21.28;38.73;102789.78;5075325;28;20012;-64
2022/02/11 10:13:20;;;;;;;8.35;2.08;;;;;;;21.49;38.85;102787.66;5075395;28;20044;-64
2022/02/11 10:15:49;;;;;;;10.77;2.08;;;;;;;21.81;38.17;102792.59;5075561;28;20483;-64
2022/02/11 10:18:15;;;;;;;7.32;2.22;;;;;;;21.87;38.14;102808.41;5057475;28;20016;-64
2022/02/11 10:20:48;;;;;;;9.10;2.20;;;;;;;22.14;37.47;102794.69;5075375;28;20374;-63
2022/02/11 10:23:19;;;;;;;6.93;1.90;;;;;;;22.18;37.52;102793.38;5058164;28;20524;-64
2022/02/11 10:25:59;;;;;;;12.00;2.95;;;;;;;22.08;37.65;102800.78;5074844;28;20073;-64
2022/02/11 10:28:30;;;;;;;8.93;1.77;;;;;;;22.49;37.49;102789.19;5074870;28;20107;-64
2022/02/11 10:31:06;;;;;;;12.90;3.47;;;;;;;22.83;36.98;102796.63;5074978;28;20528;-64
2022/02/11 10:34:06;;;;;;;11.32;1.98;;;;;;;23.04;36.25;102802.56;5056783;28;20055;-63
2022/02/11 10:36:40;;;;;;;9.48;2.50;;;;;;;23.29;35.92;102807.13;5073616;28;20031;-64
2022/02/11 10:39:40;;;;;;;10.45;2.08;;;;;;;22.09;37.21;102818.88;5074430;28;20020;-63
2022/02/11 10:42:08;;;;;;;23.98;2.53;;;;;;;21.65;37.92;102815.13;4957633;28;20033;-64
2022/02/11 10:44:39;;;;;;;5.90;1.50;;;;;;;21.09;37.67;102823.44;4958031;28;20114;-64
2022/02/11 10:47:09;;;;;;;5.75;1.80;;;;;;;20.58;38.81;102803.88;4974312;28;20022;-64
2022/02/11 10:49:39;;;;;;;12.77;2.20;;;;;;;20.32;38.95;102817.25;4974118;28;20485;-64
2022/02/11 10:52:08;;;;;;;14.23;2.45;;;;;;;20.58;38.38;102818.38;4974054;28;20038;-64
2022/02/11 10:54:34;;;;;;;8.25;2.08;;;;;;;20.00;38.19;102824.78;4973956;28;20059;-64
2022/02/11 10:57:02;;;;;;;14.55;2.60;;;;;;;19.44;38.83;102835.41;4973867;28;20094;-64
2022/02/11 10:59:38;;;;;;;9.88;2.47;;;;;;;18.88;38.76;102854.84;4974076;28;20093;-64
2022/02/11 11:02:09;;;;;;;17.10;2.08;;;;;;;18.39;39.09;102862.72;4973428;28;20030;-64
2022/02/11 11:04:34;;;;;;;8.90;2.25;;;;;;;17.96;39.58;102876.31;4973927;28;20119;-64
2022/02/11 11:07:01;;;;;;;9.82;2.40;;;;;;;17.68;39.77;102877.72;4957897;28;20453;-64
2022/02/11 11:09:28;;;;;;;13.55;1.75;;;;;;;17.41;39.86;102874.50;4973625;28;20070;-64
2022/02/11 11:11:54;;;;;;;3.72;1.48;;;;;;;17.18;40.30;102884.47;4973793;28;20166;-64
2022/02/11 11:14:21;;;;;;;11.07;1.65;;;;;;;17.04;40.02;102878.41;4973466;28;20459;-64
2022/02/11 11:16:51;;;;;;;4.55;1.08;;;;;;;17.03;39.84;102892.94;5053908;28;20556;-64
2022/02/11 11:19:17;;;;;;;7.40;1.02;;;;;;;16.80;39.95;102895.59;5074251;28;20095;-64
2022/02/11 11:21:48;;;;;;;5.32;1.42;;;;;;;16.61;39.39;102895.28;5074075;28;20029;-63
2022/02/11 11:24:15;;;;;;;13.55;1.73;;;;;;;16.39;39.30;102905.13;5056223;28;20031;-64
2022/02/11 11:26:47;;;;;;;7.68;1.13;;;;;;;16.30;39.65;102904.81;5074127;28;20028;-64
2022/02/11 11:29:18;;;;;;;5.82;1.52;;;;;;;16.25;40.31;102904.31;5073932;28;20024;-64
2022/02/11 11:31:58;;;;;;;10.68;1.20;;;;;;;17.22;37.77;102907.63;5039915;28;20021;-64
2022/02/11 11:34:24;;;;;;;6.10;1.23;;;;;;;18.03;38.01;102905.50;5056037;28;20107;-64
2022/02/11 11:36:56;;;;;;;13.60;1.83;;;;;;;18.76;37.29;102907.47;5073958;28;20532;-64
2022/02/11 11:39:21;;;;;;;6.13;1.55;;;;;;;19.44;36.79;102901.50;5056394;28;20028;-64
2022/02/11 11:41:59;;;;;;;13.00;2.08;;;;;;;20.01;36.11;102895.41;5073901;28;20103;-64
2022/02/11 11:44:25;;;;;;;12.55;1.73;;;;;;;20.55;36.39;102888.59;5055925;28;20047;-64
2022/02/11 11:46:59;;;;;;;10.45;2.00;;;;;;;21.05;35.91;102897.44;5073916;28;20474;-64
2022/02/11 11:49:26;;;;;;;8.52;2.85;;;;;;;21.50;36.03;102897.63;5055726;28;20026;-64
2022/02/11 11:51:54;;;;;;;9.13;1.50;;;;;;;21.86;34.93;102891.28;5073498;28;20095;-64
2022/02/11 11:54:21;;;;;;;7.07;1.58;;;;;;;22.15;35.38;102889.22;5073208;28;20395;-64
2022/02/11 11:56:53;;;;;;;6.55;1.50;;;;;;;22.43;34.25;102892.75;5073390;28;20020;-64
2022/02/11 11:59:25;;;;;;;6.80;1.65;;;;;;;22.75;34.74;102892.22;5073117;28;20033;-64
2022/02/11 12:02:04;;;;;;;;;;;;;;;22.99;34.24;102884.22;5073622;28;20024;-63
2022/02/11 12:04:33;;;;;;;7.00;1.20;;;;;;;23.11;34.72;102891.13;5073357;28;19909;-64
2022/02/11 12:07:00;;;;;;;6.80;1.40;;;;;;;23.23;33.34;102881.63;5073421;28;20482;-64
2022/02/11 12:09:27;;;;;;;3.15;1.05;;;;;;;23.29;33.15;102880.97;5073271;28;20048;-64
2022/02/11 12:12:12;;;;;;;7.78;1.45;;;;;;;23.30;33.32;102877.22;5073116;28;20031;-64
2022/02/11 12:14:39;;;;;;;9.38;1.40;;;;;;;23.48;33.47;102888.97;5076267;28;20032;-64
2022/02/11 12:17:11;;;;;;;6.45;1.85;;;;;;;23.60;33.05;102884.94;5077234;28;20395;-63
2022/02/11 12:19:38;;;;;;;4.80;1.30;;;;;;;23.67;32.30;102885.97;5077470;28;20028;-63
2022/02/11 12:22:06;;;;;;;6.60;0.90;;;;;;;23.74;32.58;102881.56;5077132;28;20036;-64
2022/02/11 12:27:30;;;;;;;10.95;2.15;;;;;;;23.97;31.83;102886.44;5077329;28;20093;-64
2022/02/11 12:30:27;;;;;;;6.70;0.93;;;;;;;23.37;32.99;102871.94;5076969;28;20017;-64
2022/02/11 12:32:57;;;;;;;5.55;1.15;;;;;;;23.59;32.43;102885.13;5040473;28;20479;-63
2022/02/11 12:35:23;;;;;;;7.97;1.60;;;;;;;23.71;31.33;102881.91;5056961;28;20104;-63
2022/02/11 12:37:50;;;;;;;5.65;1.30;;;;;;;23.71;31.26;102887.38;5064351;28;20032;-63
2022/02/11 12:40:16;;;;;;;9.23;1.30;;;;;;;23.72;31.24;102883.63;5074951;28;20478;-63
2022/02/11 12:42:44;;;;;;;8.00;1.48;;;;;;;23.55;30.97;102892.78;5076522;28;20025;-63
2022/02/11 12:45:24;;;;;;;9.35;1.25;;;;;;;23.20;31.41;102892.88;5076773;28;20544;-63
2022/02/11 12:47:53;;;;;;;8.50;1.30;;;;;;;22.91;31.77;102900.56;5076680;28;20028;-63
2022/02/11 12:50:29;;;;;;;6.18;1.30;;;;;;;22.84;32.08;102903.06;5076919;28;20037;-63
2022/02/11 12:52:56;;;;;;;8.20;1.77;;;;;;;22.86;31.10;102905.66;5076628;28;20114;-64
2022/02/11 12:55:22;;;;;;;4.32;1.42;;;;;;;22.74;31.61;102912.38;5058619;28;20024;-63
2022/02/11 12:57:58;;;;;;;3.40;0.68;;;;;;;22.78;30.80;102913.78;5076534;28;20024;-63
2022/02/11 13:00:26;;;;;;;10.32;1.13;;;;;;;22.89;30.89;102899.88;5076365;28;20020;-63
2022/02/11 13:02:58;;;;;;;6.57;1.20;;;;;;;22.50;31.66;102902.88;5058233;28;20024;-63
2022/02/11 13:05:26;;;;;;;5.32;1.75;;;;;;;21.96;31.72;102894.81;5076635;28;20024;-63
2022/02/11 13:07:54;;;;;;;10.07;1.35;;;;;;;21.50;32.38;102897.63;5076434;28;20104;-64
2022/02/11 13:10:20;;;;;;;8.40;1.42;;;;;;;21.08;32.58;102908.91;5076815;28;20059;-64
2022/02/11 13:12:47;;;;;;;6.47;1.38;;;;;;;20.77;32.46;102915.56;5076978;28;20021;-64
2022/02/11 13:15:15;;;;;;;6.47;1.60;;;;;;;20.41;32.34;102919.84;5058116;28;20031;-64
2022/02/11 13:17:42;;;;;;;5.07;1.08;;;;;;;20.03;32.06;102925.19;5071203;28;20414;-64
2022/02/11 13:20:12;;;;;;;5.72;1.27;;;;;;;19.77;32.13;102941.13;5044536;28;20029;-64
2022/02/11 13:22:39;;;;;;;2.10;0.80;;;;;;;19.57;31.99;102937.47;5076216;28;20085;-64
2022/02/11 13:25:06;;;;;;;4.93;1.33;;;;;;;19.90;31.77;102936.34;5076278;28;20029;-64
2022/02/11 13:27:42;;;;;;;4.93;0.93;;;;;;;20.26;31.08;102935.75;5041727;28;20029;-64
2022/02/11 13:30:09;;;;;;;6.25;0.70;;;;;;;20.57;31.06;102935.63;5058577;28;20031;-64
2022/02/11 13:32:34;;;;;;;3.10;0.65;;;;;;;20.87;31.38;102943.66;5076362;28;20029;-64
2022/02/11 13:35:04;;;;;;;3.58;0.70;;;;;;;21.07;31.57;102939.94;5058211;28;20032;-64
2022/02/11 13:37:39;;;;;;;6.45;1.13;;;;;;;21.13;30.83;102933.03;5061723;28;20028;-64
2022/02/11 13:40:12;;;;;;;6.00;1.13;;;;;;;21.11;31.15;102946.78;5055849;28;20032;-64
2022/02/11 13:42:37;;;;;;;;;;;;;;;20.82;32.61;102943.22;5056921;28;20364;-64
2022/02/11 13:45:05;;;;;;;3.90;1.30;;;;;;;20.58;32.54;102948.22;5056322;28;20019;-64
2022/02/11 13:47:32;;;;;;;8.35;1.00;;;;;;;20.21;31.94;102948.84;5056100;28;20025;-64
2022/02/11 13:50:03;;;;;;;6.25;1.38;;;;;;;19.85;32.36;102948.63;5055895;28;20072;-64
2022/02/11 13:55:32;;;;;;;9.35;1.55;;;;;;;19.19;32.76;102968.00;4994864;28;20029;-64
2022/02/11 13:58:13;;;;;;;6.47;1.10;;;;;;;18.93;32.65;102971.22;4994728;28;20476;-64
2022/02/11 14:00:38;;;;;;;7.40;1.95;;;;;;;18.70;32.68;102975.91;4994496;28;20042;-64
2022/02/11 14:03:04;;;;;;;8.55;1.58;;;;;;;18.80;32.75;102971.41;4994878;28;20041;-64
2022/02/11 14:05:42;;;;;;;5.90;1.60;;;;;;;18.64;31.97;102968.28;4994441;28;20033;-63
2022/02/11 14:08:09;;;;;;;8.65;1.98;;;;;;;18.85;33.13;102976.44;4978196;28;20044;-64
2022/02/11 14:10:35;;;;;;;10.57;1.02;;;;;;;18.95;32.64;102970.13;4978475;28;20485;-64
2022/02/11 14:13:07;;;;;;;9.13;1.52;;;;;;;19.11;32.19;102969.66;4994208;28;20073;-64
2022/02/11 14:15:34;;;;;;;6.38;1.80;;;;;;;19.26;31.99;102964.75;4997819;28;20109;-63
2022/02/11 14:18:05;;;;;;;9.43;1.67;;;;;;;19.44;32.48;102974.03;4997377;28;20026;-63
2022/02/11 14:20:31;;;;;;;7.28;1.35;;;;;;;19.51;32.26;102975.22;5014052;28;20133;-63
2022/02/11 14:22:56;;;;;;;9.00;1.70;;;;;;;19.44;32.20;102982.19;5014340;28;20072;-63
2022/02/11 14:25:21;;;;;;;5.97;1.13;;;;;;;19.34;33.01;102992.13;5018350;28;20029;-63
2022/02/11 14:27:47;;;;;;;6.65;1.10;;;;;;;19.19;33.16;102983.44;5038370;28;20033;-64
2022/02/11 14:30:12;;;;;;;7.80;1.55;;;;;;;19.03;32.75;102977.59;5038487;28;20100;-64
2022/02/11 14:32:38;;;;;;;4.32;1.17;;;;;;;18.88;32.80;102987.03;5038356;28;20033;-64
2022/02/11 14:35:04;;;;;;;5.90;1.02;;;;;;;18.71;32.70;102995.75;5038423;28;20028;-64
2022/02/11 14:37:29;;;;;;;6.28;0.98;;;;;;;18.52;32.69;102991.88;5037345;28;20028;-64
2022/02/11 14:39:55;;;;;;;3.63;1.25;;;;;;;18.37;32.48;102995.81;5037927;28;20028;-63
2022/02/11 14:42:20;;;;;;;2.83;1.00;;;;;;;18.23;32.69;103006.09;5055491;28;20025;-64
2022/02/11 14:44:46;;;;;;;7.93;1.20;;;;;;;18.12;33.06;103006.13;5055480;28;20021;-64
2022/02/11 14:47:13;;;;;;;6.50;1.00;;;;;;;17.99;32.55;102996.25;5055383;28;20028;-64
2022/02/11 14:49:40;;;;;;;6.38;1.20;;;;;;;17.99;32.11;102998.97;5055679;28;20100;-64
2022/02/11 14:52:07;;;;;;;2.85;0.70;;;;;;;17.95;32.12;103000.19;5055180;28;20032;-64
2022/02/11 14:54:35;;;;;;;1.75;0.65;;;;;;;17.90;31.56;103005.13;5036987;28;20491;-64
2022/02/11 14:57:01;;;;;;;6.45;0.93;;;;;;;17.83;32.22;103000.31;5055148;28;20107;-64
2022/02/11 14:59:26;;;;;;;9.98;0.85;;;;;;;17.83;32.32;103006.63;5037454;28;20027;-64
2022/02/11 15:01:53;;;;;;;2.60;0.70;;;;;;;17.78;32.46;103006.09;5055067;28;20079;-64
2022/02/11 15:04:19;;;;;;;4.93;1.10;;;;;;;17.72;32.34;103003.03;5055203;28;20474;-64
2022/02/11 15:06:50;;;;;;;10.45;1.02;;;;;;;17.72;32.08;103014.75;5055363;28;20074;-64
2022/02/11 15:09:17;;;;;;;4.50;0.68;;;;;;;17.67;32.45;103027.78;5055257;28;20025;-64
2022/02/11 15:11:42;;;;;;;3.38;0.70;;;;;;;17.58;32.37;103016.81;5037477;28;20426;-63
2022/02/11 15:14:09;;;;;;;4.57;0.88;;;;;;;17.57;32.33;103024.06;5055243;28;20028;-64
2022/02/11 15:16:34;;;;;;;1.77;0.60;;;;;;;17.57;31.91;103025.91;5054594;28;20020;-63